Time;durP1;ratioP1;P1;durP2;ratioP2;P2;SDS_P1;SDS_P2;PMS_P1;PMS_P2;Temp;Humidity;BMP_temperature;BMP_pressure;BME280_temperature;BME280_humidity;BME280_pressure;Samples;Min_cycle;Max_cycle;Signal;HPM_P1;HPM_P2
2023/10/15 00:00:25;;;;;;;1.98;0.98;;;10.30;99.60;;;;;;5004477;28;20353;-15
2023/10/15 00:02:52;;;;;;;2.03;0.97;;;10.30;99.70;;;;;;5007772;28;20418;-15
2023/10/15 00:05:25;;;;;;;1.80;0.90;;;10.30;99.70;;;;;;4990233;28;20095;-15
2023/10/15 00:07:51;;;;;;;3.30;1.10;;;10.30;99.70;;;;;;4996540;28;20046;-15
2023/10/15 00:10:27;;;;;;;1.90;0.80;;;10.30;99.80;;;;;;4994969;28;20100;-15
2023/10/15 00:12:54;;;;;;;1.90;0.90;;;10.20;99.60;;;;;;4966602;28;20511;-15
2023/10/15 00:15:23;;;;;;;0.90;0.70;;;10.20;99.80;;;;;;5009707;28;20395;-15
2023/10/15 00:17:51;;;;;;;2.15;0.93;;;10.20;99.90;;;;;;5000141;28;20233;-15
2023/10/15 00:20:17;;;;;;;1.30;0.80;;;10.20;99.90;;;;;;5008501;28;20422;-15
2023/10/15 00:22:44;;;;;;;1.73;1.02;;;10.20;99.90;;;;;;4991639;28;20022;-15
2023/10/15 00:25:19;;;;;;;2.47;0.90;;;10.20;99.90;;;;;;4998339;28;20040;-15
2023/10/15 00:27:57;;;;;;;2.77;1.17;;;10.20;99.90;;;;;;4975087;28;20029;-15
2023/10/15 00:30:31;;;;;;;1.55;0.80;;;10.20;99.90;;;;;;5010208;28;20040;-15
2023/10/15 00:32:57;;;;;;;1.77;0.82;;;13.10;99.90;;;;;;5021261;28;20018;-17
2023/10/15 00:35:25;;;;;;;1.35;0.80;;;10.20;99.90;;;;;;5002620;28;20075;-17
2023/10/15 00:37:57;;;;;;;2.67;0.73;;;10.20;99.90;;;;;;4994861;28;20033;-16
2023/10/15 00:40:24;;;;;;;1.92;0.80;;;10.20;99.90;;;;;;4996971;28;20444;-17
2023/10/15 00:42:50;;;;;;;0.95;0.80;;;10.20;99.90;;;;;;4977948;28;20757;-17
2023/10/15 00:45:20;;;;;;;2.85;0.85;;;10.20;99.90;;;;;;5006440;28;20104;-17
2023/10/15 00:48:00;;;;;;;2.38;0.80;;;10.20;99.90;;;;;;5007632;28;20038;-16
2023/10/15 00:50:31;;;;;;;1.60;0.60;;;10.30;99.90;;;;;;5000466;28;20021;-16
2023/10/15 00:53:05;;;;;;;0.80;0.70;;;10.40;99.90;;;;;;4987519;28;20253;-17
2023/10/15 00:55:35;;;;;;;2.08;0.70;;;10.40;99.90;;;;;;4997724;28;20049;-16
2023/10/15 00:58:09;;;;;;;2.10;0.60;;;10.40;99.90;;;;;;5003240;28;20712;-17
2023/10/15 01:00:48;;;;;;;1.25;0.70;;;10.50;99.90;;;;;;4975104;28;20736;-16
2023/10/15 01:03:16;;;;;;;1.77;0.70;;;10.50;99.90;;;;;;5006619;28;20130;-17
2023/10/15 01:05:53;;;;;;;1.80;0.70;;;10.60;99.90;;;;;;4997447;28;20033;-16
2023/10/15 01:08:31;;;;;;;2.33;0.60;;;10.70;99.90;;;;;;4993520;28;20422;-17
2023/10/15 01:11:18;;;;;;;1.48;0.70;;;10.70;99.90;;;;;;5003104;28;20507;-17
2023/10/15 01:13:44;;;;;;;2.35;0.63;;;10.70;99.90;;;;;;4969468;28;21402;-16
2023/10/15 01:16:17;;;;;;;1.67;0.70;;;10.70;99.90;;;;;;5026844;28;20396;-17
2023/10/15 01:18:45;;;;;;;0.80;0.60;;;10.70;99.90;;;;;;5007663;28;20037;-17
2023/10/15 01:21:14;;;;;;;0.85;0.60;;;10.80;99.90;;;;;;5004447;28;20037;-16
2023/10/15 01:26:23;;;;;;;0.60;0.60;;;10.80;99.90;;;;;;4999023;28;20029;-17
2023/10/15 01:28:51;;;;;;;2.67;0.60;;;10.80;99.90;;;;;;4997411;28;20527;-17
2023/10/15 01:31:17;;;;;;;2.40;0.60;;;10.80;99.90;;;;;;4987163;28;20559;-17
2023/10/15 01:33:46;;;;;;;0.75;0.50;;;10.80;99.90;;;;;;5007019;28;20037;-16
2023/10/15 01:36:19;;;;;;;0.55;0.50;;;10.70;99.90;;;;;;5008429;28;20034;-16
2023/10/15 01:38:45;;;;;;;1.73;0.70;;;10.70;99.90;;;;;;5000973;28;20025;-16
2023/10/15 01:41:19;;;;;;;1.10;0.60;;;10.70;99.90;;;;;;5001325;28;20033;-16
2023/10/15 01:43:46;;;;;;;0.85;0.50;;;10.70;99.90;;;;;;4997777;28;20246;-14
2023/10/15 01:46:25;;;;;;;0.98;0.50;;;10.70;99.90;;;;;;4983840;28;20072;-15
2023/10/15 01:48:51;;;;;;;1.77;0.77;;;10.70;99.90;;;;;;5008445;28;20037;-15
2023/10/15 01:51:16;;;;;;;1.27;0.50;;;10.60;99.90;;;;;;5022887;28;20413;-15
2023/10/15 01:53:45;;;;;;;0.95;0.57;;;10.60;99.90;;;;;;4991463;28;20045;-15
2023/10/15 01:56:17;;;;;;;1.60;0.60;;;10.60;99.90;;;;;;5026127;28;20663;-15
2023/10/15 01:58:44;;;;;;;2.07;0.50;;;10.60;99.90;;;;;;4988342;28;20018;-15
2023/10/15 02:01:31;;;;;;;1.85;0.50;;;10.60;99.90;;;;;;5000894;28;20114;-15
2023/10/15 02:03:57;;;;;;;1.05;0.63;;;10.60;99.90;;;;;;5006551;28;20253;-15
2023/10/15 02:06:27;;;;;;;1.05;0.40;;;10.50;99.90;;;;;;5010573;28;20449;-15
2023/10/15 02:08:53;;;;;;;1.02;0.43;;;10.50;99.90;;;;;;4990930;28;20147;-15
2023/10/15 02:11:21;;;;;;;0.77;0.40;;;10.40;99.90;;;;;;5011323;28;20029;-15
2023/10/15 02:13:51;;;;;;;2.45;0.70;;;10.40;99.90;;;;;;4996382;28;20558;-14
2023/10/15 02:16:29;;;;;;;1.40;0.65;;;10.40;99.90;;;;;;4973081;28;20026;-15
2023/10/15 02:18:58;;;;;;;3.20;1.03;;;10.30;99.90;;;;;;5008919;28;20873;-15
2023/10/15 02:21:25;;;;;;;0.70;0.40;;;10.30;99.90;;;;;;5012337;28;20418;-15
2023/10/15 02:23:51;;;;;;;1.50;0.63;;;10.30;99.90;;;;;;5000914;28;20252;-14
2023/10/15 02:26:30;;;;;;;1.50;0.50;;;10.30;99.90;;;;;;5013056;28;20061;-15
2023/10/15 02:29:05;;;;;;;1.15;0.60;;;10.20;99.90;;;;;;4998151;28;20143;-15
2023/10/15 02:31:31;;;;;;;0.83;0.50;;;10.20;99.90;;;;;;4987414;28;20031;-15
2023/10/15 02:33:57;;;;;;;1.50;0.45;;;10.20;99.90;;;;;;4995457;28;20789;-15
2023/10/15 02:36:25;;;;;;;1.63;0.60;;;10.20;99.90;;;;;;5020906;28;20120;-15
2023/10/15 02:38:55;;;;;;;0.90;0.50;;;10.10;99.90;;;;;;4999788;28;20049;-15
2023/10/15 02:41:31;;;;;;;1.38;0.50;;;10.10;99.90;;;;;;5009758;28;20481;-15
2023/10/15 02:43:57;;;;;;;2.05;0.68;;;10.10;99.90;;;;;;5009630;28;20671;-14
2023/10/15 02:46:36;;;;;;;2.45;0.60;;;10.20;99.90;;;;;;5003119;28;20037;-15
2023/10/15 02:49:06;;;;;;;1.10;0.52;;;10.10;99.90;;;;;;5002347;28;20454;-15
2023/10/15 02:51:35;;;;;;;1.17;0.40;;;10.10;99.90;;;;;;5007012;28;20025;-16
2023/10/15 02:56:57;;;;;;;1.20;0.60;;;10.10;99.90;;;;;;4991208;28;20523;-16
2023/10/15 02:59:23;;;;;;;2.72;0.50;;;10.10;99.90;;;;;;5008913;28;20030;-15
2023/10/15 03:01:54;;;;;;;1.17;0.57;;;10.10;99.90;;;;;;4965778;28;20344;-15
2023/10/15 03:04:32;;;;;;;0.90;0.40;;;8.50;99.90;;;;;;5010671;28;20132;-15
2023/10/15 03:07:17;;;;;;;0.57;0.50;;;10.10;99.90;;;;;;5009554;28;20667;-15
2023/10/15 03:09:44;;;;;;;2.08;0.60;;;10.10;99.90;;;;;;5004289;28;20033;-16
2023/10/15 03:12:13;;;;;;;1.02;0.60;;;10.10;99.90;;;;;;5011053;28;20017;-16
2023/10/15 03:14:41;;;;;;;0.40;0.40;;;10.10;99.90;;;;;;4998459;28;20033;-15
2023/10/15 03:17:13;;;;;;;1.13;0.40;;;10.10;99.90;;;;;;5007509;28;20490;-15
2023/10/15 03:19:41;;;;;;;0.73;0.40;;;10.10;99.90;;;;;;4978108;28;20118;-16
2023/10/15 03:22:11;;;;;;;1.00;0.50;;;10.10;99.90;;;;;;5008522;28;20326;-15
2023/10/15 03:24:37;;;;;;;1.73;0.50;;;10.10;99.90;;;;;;5004222;28;20025;-16
2023/10/15 03:27:05;;;;;;;1.00;0.43;;;10.10;99.90;;;;;;5006046;28;20048;-16
2023/10/15 03:29:32;;;;;;;1.23;0.50;;;10.10;99.90;;;;;;5025344;28;20032;-16
2023/10/15 03:32:12;;;;;;;0.95;0.50;;;10.00;99.90;;;;;;4996978;28;20583;-16
2023/10/15 03:34:47;;;;;;;0.90;0.50;;;10.10;99.90;;;;;;4980892;28;20033;-16
2023/10/15 03:37:21;;;;;;;0.90;0.50;;;10.00;99.90;;;;;;5010325;28;20076;-15
2023/10/15 03:39:56;;;;;;;1.20;0.47;;;10.00;99.90;;;;;;5004125;28;20022;-16
2023/10/15 03:42:27;;;;;;;1.17;0.50;;;10.00;99.90;;;;;;5009171;28;20037;-16
2023/10/15 03:44:59;;;;;;;1.15;0.50;;;10.00;99.90;;;;;;5004283;28;20223;-15
2023/10/15 03:47:25;;;;;;;0.65;0.38;;;10.10;99.90;;;;;;5002394;28;20030;-15
2023/10/15 03:49:51;;;;;;;0.95;0.57;;;10.00;99.90;;;;;;4981337;28;20022;-15
2023/10/15 03:52:20;;;;;;;2.13;0.52;;;10.00;99.90;;;;;;5009314;28;20030;-15
2023/10/15 03:54:50;;;;;;;0.50;0.50;;;10.10;99.90;;;;;;5005690;28;20675;-15
2023/10/15 03:57:27;;;;;;;1.40;0.50;;;10.10;99.90;;;;;;5003540;28;20091;-15
2023/10/15 03:59:54;;;;;;;0.73;0.50;;;10.10;99.90;;;;;;5006586;28;20030;-15
2023/10/15 04:05:13;;;;;;;1.27;0.50;;;10.10;99.90;;;;;;4991996;28;20108;-17
2023/10/15 04:07:48;;;;;;;0.97;0.50;;;10.10;99.90;;;;;;5005617;28;20034;-16
2023/10/15 04:10:15;;;;;;;2.33;0.60;;;10.20;99.90;;;;;;5025883;28;20069;-17
2023/10/15 04:12:43;;;;;;;1.75;0.60;;;10.20;99.90;;;;;;5003720;28;20169;-16
2023/10/15 04:15:17;;;;;;;1.00;0.57;;;10.20;99.90;;;;;;5017623;28;20082;-17
2023/10/15 04:17:45;;;;;;;0.68;0.52;;;10.20;99.90;;;;;;4978391;28;20042;-17
2023/10/15 04:20:15;;;;;;;1.37;0.60;;;10.20;99.90;;;;;;4987296;28;20037;-17
2023/10/15 04:22:45;;;;;;;0.90;0.40;;;10.20;99.90;;;;;;5004252;28;20383;-16
2023/10/15 04:25:23;;;;;;;1.65;0.50;;;10.30;99.90;;;;;;5009701;28;20549;-17
2023/10/15 04:27:54;;;;;;;1.13;0.50;;;10.30;99.90;;;;;;5013228;28;20276;-16
2023/10/15 04:30:20;;;;;;;2.35;0.50;;;10.30;99.90;;;;;;5007985;28;20025;-17
2023/10/15 04:32:47;;;;;;;1.10;0.60;;;10.30;99.90;;;;;;4996809;28;20612;-16
2023/10/15 04:35:25;;;;;;;1.35;0.60;;;10.30;99.90;;;;;;4983930;28;20018;-17
2023/10/15 04:37:52;;;;;;;1.55;0.60;;;10.30;99.90;;;;;;4995479;28;20029;-17
2023/10/15 04:40:23;;;;;;;1.17;0.63;;;10.20;99.90;;;;;;5011719;28;20501;-17
2023/10/15 04:42:52;;;;;;;0.93;0.40;;;10.20;99.90;;;;;;5020594;28;20198;-17
2023/10/15 04:45:35;;;;;;;0.63;0.50;;;10.20;99.90;;;;;;5003194;28;20116;-17
2023/10/15 04:48:02;;;;;;;0.98;0.45;;;10.30;99.90;;;;;;5011824;28;22179;-16
2023/10/15 04:50:29;;;;;;;0.70;0.40;;;10.20;99.90;;;;;;4983059;28;20597;-16
2023/10/15 04:53:12;;;;;;;1.20;0.60;;;10.20;99.90;;;;;;5005872;28;20481;-17
2023/10/15 04:55:42;;;;;;;2.10;0.60;;;10.20;99.90;;;;;;5013895;28;20049;-16
2023/10/15 04:58:09;;;;;;;0.60;0.57;;;10.20;99.90;;;;;;5024068;28;20064;-17
2023/10/15 05:00:37;;;;;;;2.42;0.55;;;10.10;99.90;;;;;;5008735;28;20465;-16
2023/10/15 05:03:04;;;;;;;1.48;0.40;;;10.10;99.90;;;;;;4996444;28;20049;-16
2023/10/15 05:05:31;;;;;;;1.42;0.50;;;10.10;99.90;;;;;;4974758;28;20169;-17
2023/10/15 05:07:59;;;;;;;1.02;0.55;;;10.10;99.90;;;;;;5000363;28;20048;-17
2023/10/15 05:10:32;;;;;;;1.97;0.50;;;10.00;99.90;;;;;;5021789;28;20112;-17
2023/10/15 05:12:59;;;;;;;0.75;0.40;;;10.00;99.90;;;;;;5010845;28;20030;-17
2023/10/15 05:15:26;;;;;;;0.93;0.60;;;10.00;99.90;;;;;;5004661;28;20146;-15
2023/10/15 05:17:51;;;;;;;0.60;0.52;;;9.90;99.90;;;;;;5013789;28;20075;-15
2023/10/15 05:20:20;;;;;;;2.07;0.60;;;9.90;99.90;;;;;;4970887;28;20033;-15
2023/10/15 05:22:46;;;;;;;1.15;0.40;;;9.90;99.90;;;;;;4996655;28;20149;-15
2023/10/15 05:25:18;;;;;;;0.73;0.50;;;9.90;99.90;;;;;;5012878;28;20564;-17
2023/10/15 05:27:44;;;;;;;1.92;0.60;;;9.90;99.90;;;;;;5007451;28;20150;-17
2023/10/15 05:30:12;;;;;;;2.23;0.50;;;9.90;99.90;;;;;;4988024;28;20042;-16
2023/10/15 05:32:38;;;;;;;0.80;0.65;;;9.80;99.90;;;;;;5021516;28;20075;-16
2023/10/15 05:35:08;;;;;;;1.50;0.55;;;9.80;99.90;;;;;;5004539;28;20045;-16
2023/10/15 05:37:36;;;;;;;1.15;0.52;;;9.80;99.90;;;;;;4973012;28;20033;-16
2023/10/15 05:40:03;;;;;;;1.38;0.50;;;9.80;99.90;;;;;;5011037;28;20108;-17
2023/10/15 05:42:29;;;;;;;3.10;0.67;;;9.80;99.90;;;;;;5024721;28;20067;-16
2023/10/15 05:44:56;;;;;;;0.85;0.55;;;9.80;99.90;;;;;;5011295;28;20038;-17
2023/10/15 05:47:22;;;;;;;1.65;0.60;;;9.80;99.90;;;;;;5006773;28;21067;-16
2023/10/15 05:49:48;;;;;;;1.08;0.50;;;9.80;99.90;;;;;;5001975;28;20731;-17
2023/10/15 05:52:14;;;;;;;0.98;0.60;;;9.80;99.90;;;;;;4984205;28;20698;-17
2023/10/15 05:54:40;;;;;;;1.67;0.60;;;9.80;99.90;;;;;;4996319;28;20276;-17
2023/10/15 05:57:06;;;;;;;1.35;0.65;;;9.80;99.90;;;;;;5027582;28;20025;-16
2023/10/15 05:59:35;;;;;;;2.05;0.68;;;9.80;99.90;;;;;;5009225;28;20361;-16
2023/10/15 06:02:02;;;;;;;3.35;1.40;;;9.80;99.90;;;;;;5011745;28;20045;-17
2023/10/15 06:04:28;;;;;;;0.80;0.50;;;9.80;99.90;;;;;;5010249;28;20034;-16
2023/10/15 06:06:55;;;;;;;1.98;0.65;;;9.80;99.90;;;;;;4961079;28;20345;-16
2023/10/15 06:09:21;;;;;;;1.98;0.55;;;9.80;99.90;;;;;;5011249;28;20577;-16
2023/10/15 06:11:47;;;;;;;1.67;0.60;;;9.80;99.90;;;;;;4999392;28;20036;-17
2023/10/15 06:14:13;;;;;;;1.75;0.68;;;9.80;99.90;;;;;;5010450;28;20029;-17
2023/10/15 06:16:39;;;;;;;0.83;0.63;;;9.80;99.90;;;;;;5022027;28;20555;-17
2023/10/15 06:19:05;;;;;;;1.27;0.77;;;9.70;99.90;;;;;;5016337;28;20230;-18
2023/10/15 06:21:32;;;;;;;1.87;0.67;;;9.70;99.90;;;;;;5002036;28;20029;-16
2023/10/15 06:23:58;;;;;;;1.05;0.60;;;9.70;99.90;;;;;;4971388;28;20081;-17
2023/10/15 06:26:24;;;;;;;2.08;0.60;;;9.80;99.90;;;;;;5008105;28;20113;-16
2023/10/15 06:28:50;;;;;;;1.80;0.60;;;9.70;99.90;;;;;;5009140;28;20061;-17
2023/10/15 06:31:16;;;;;;;1.83;0.60;;;9.70;99.90;;;;;;5007857;28;20112;-16
2023/10/15 06:33:42;;;;;;;0.82;0.65;;;9.80;99.90;;;;;;5008958;28;20694;-17
2023/10/15 06:36:08;;;;;;;2.97;0.73;;;9.80;99.90;;;;;;5011600;28;20041;-16
2023/10/15 06:38:33;;;;;;;1.48;0.70;;;9.80;99.90;;;;;;4969801;28;20184;-16
2023/10/15 06:41:04;;;;;;;2.45;0.80;;;9.80;99.90;;;;;;5000183;28;20040;-17
2023/10/15 06:43:30;;;;;;;0.83;0.70;;;9.80;99.90;;;;;;5006969;28;20223;-17
2023/10/15 06:46:06;;;;;;;2.25;0.80;;;9.80;99.90;;;;;;5000163;28;20077;-16
2023/10/15 06:48:33;;;;;;;0.93;0.60;;;9.80;99.90;;;;;;5004041;28;20486;-16
2023/10/15 06:51:02;;;;;;;1.33;0.67;;;9.80;99.90;;;;;;4999684;28;20028;-17
2023/10/15 06:53:28;;;;;;;2.03;0.70;;;9.80;99.90;;;;;;4991044;28;20498;-16
2023/10/15 06:55:54;;;;;;;1.63;0.80;;;9.90;99.90;;;;;;4997073;28;20219;-16
2023/10/15 06:58:20;;;;;;;1.27;0.60;;;10.00;99.90;;;;;;5015063;28;20498;-16
2023/10/15 07:00:45;;;;;;;0.93;0.63;;;9.90;99.90;;;;;;5007188;28;20118;-17
2023/10/15 07:03:11;;;;;;;2.10;0.83;;;10.00;99.90;;;;;;5012554;28;20042;-17
2023/10/15 07:05:37;;;;;;;2.13;0.80;;;10.00;99.90;;;;;;4998668;28;20068;-16
2023/10/15 07:08:03;;;;;;;1.30;0.77;;;10.00;99.90;;;;;;5011751;28;20387;-17
2023/10/15 07:10:28;;;;;;;2.15;0.70;;;10.10;99.90;;;;;;4996470;28;20032;-17
2023/10/15 07:12:57;;;;;;;1.58;0.70;;;10.10;99.90;;;;;;4998184;28;20034;-17
2023/10/15 07:15:24;;;;;;;3.53;0.70;;;10.10;99.90;;;;;;5027913;28;20033;-16
2023/10/15 07:17:50;;;;;;;2.65;0.60;;;10.20;99.90;;;;;;5007791;28;20296;-17
2023/10/15 07:20:24;;;;;;;1.65;0.80;;;10.30;99.90;;;;;;5010672;28;20112;-17
2023/10/15 07:22:51;;;;;;;1.30;0.63;;;10.30;99.90;;;;;;4995263;28;20415;-16
2023/10/15 07:25:21;;;;;;;2.33;0.68;;;10.40;99.90;;;;;;5016233;28;20095;-16
2023/10/15 07:27:49;;;;;;;3.10;1.00;;;10.60;99.90;;;;;;4971640;28;21314;-16
2023/10/15 07:30:16;;;;;;;2.97;0.82;;;10.80;99.90;;;;;;5009345;28;20029;-17
2023/10/15 07:32:44;;;;;;;2.28;0.80;;;11.10;99.90;;;;;;5005763;28;20030;-17
2023/10/15 07:35:12;;;;;;;1.70;0.70;;;11.40;99.90;;;;;;5007841;28;20022;-17
2023/10/15 07:37:42;;;;;;;1.77;0.75;;;11.90;99.90;;;;;;4996491;28;20068;-16
2023/10/15 07:40:21;;;;;;;3.03;0.90;;;12.40;99.90;;;;;;4999377;28;20379;-17
2023/10/15 07:42:52;;;;;;;1.30;1.00;;;12.90;99.90;;;;;;4978416;28;20034;-16
2023/10/15 07:45:20;;;;;;;1.65;0.73;;;13.60;99.90;;;;;;5014054;28;20094;-15
2023/10/15 07:47:46;;;;;;;1.40;0.75;;;14.10;99.90;;;;;;4996877;28;20026;-15
2023/10/15 07:50:23;;;;;;;2.13;0.77;;;14.50;99.90;;;;;;5010709;28;20061;-15
2023/10/15 07:52:50;;;;;;;0.80;0.77;;;14.90;99.90;;;;;;5005809;28;20030;-15
2023/10/15 07:55:16;;;;;;;1.10;0.60;;;15.20;99.90;;;;;;4987808;28;20029;-15
2023/10/15 07:57:43;;;;;;;1.65;0.70;;;15.40;99.90;;;;;;4992809;28;20373;-15
2023/10/15 08:00:22;;;;;;;1.25;0.80;;;15.40;99.90;;;;;;5008231;28;20088;-16
2023/10/15 08:02:52;;;;;;;1.58;0.70;;;15.40;99.90;;;;;;5007296;28;20341;-16
2023/10/15 08:05:21;;;;;;;0.70;0.50;;;15.20;99.90;;;;;;5007658;28;20052;-15
2023/10/15 08:07:48;;;;;;;1.27;0.63;;;15.10;99.90;;;;;;5008810;28;20124;-15
2023/10/15 08:10:14;;;;;;;1.13;0.70;;;14.90;99.90;;;;;;5000222;28;20028;-15
2023/10/15 08:12:41;;;;;;;0.85;0.60;;;14.70;99.90;;;;;;4993450;28;20022;-16
2023/10/15 08:15:07;;;;;;;1.70;0.70;;;14.50;99.90;;;;;;4994549;28;20518;-16
2023/10/15 08:17:33;;;;;;;1.37;0.70;;;14.40;99.90;;;;;;5010708;28;20037;-15
2023/10/15 08:19:59;;;;;;;1.70;0.90;;;14.20;99.90;;;;;;5007181;28;20306;-15
2023/10/15 08:22:28;;;;;;;1.52;0.85;;;14.10;99.90;;;;;;4995009;28;20492;-15
2023/10/15 08:24:55;;;;;;;1.60;0.70;;;14.00;99.90;;;;;;4996671;28;20624;-15
2023/10/15 08:27:21;;;;;;;2.35;0.82;;;13.90;99.90;;;;;;4989808;28;20042;-15
2023/10/15 08:29:47;;;;;;;3.08;0.90;;;13.80;99.90;;;;;;4989345;28;20048;-15
2023/10/15 08:32:18;;;;;;;1.92;0.70;;;13.80;99.90;;;;;;5010770;28;20021;-15
2023/10/15 08:34:44;;;;;;;2.03;0.90;;;13.80;99.90;;;;;;5008953;28;20123;-15
2023/10/15 08:37:11;;;;;;;1.27;0.73;;;13.60;99.90;;;;;;5008075;28;20306;-15
2023/10/15 08:39:38;;;;;;;1.58;0.70;;;13.60;99.90;;;;;;5008353;28;20017;-15
2023/10/15 08:42:11;;;;;;;2.10;0.60;;;13.50;99.90;;;;;;4996153;28;20030;-15
2023/10/15 08:44:40;;;;;;;1.98;0.70;;;13.40;99.90;;;;;;4983686;28;20041;-16
2023/10/15 08:47:09;;;;;;;1.63;0.80;;;13.30;99.90;;;;;;5002491;28;20088;-15
2023/10/15 08:49:39;;;;;;;0.80;0.60;;;13.20;99.90;;;;;;5007305;28;20038;-15
2023/10/15 08:52:06;;;;;;;2.05;0.93;;;13.10;99.90;;;;;;5006176;28;20071;-16
2023/10/15 08:54:38;;;;;;;1.25;0.70;;;13.10;99.90;;;;;;5024046;28;20337;-16
2023/10/15 08:57:08;;;;;;;1.38;0.70;;;13.10;99.90;;;;;;5013779;28;20040;-15
2023/10/15 08:59:35;;;;;;;1.20;0.70;;;13.00;99.90;;;;;;4983142;28;20042;-15
2023/10/15 09:02:05;;;;;;;1.98;0.90;;;13.00;99.90;;;;;;5022881;28;20064;-15
2023/10/15 09:04:32;;;;;;;2.85;0.88;;;13.00;99.90;;;;;;5023864;28;20517;-15
2023/10/15 09:07:01;;;;;;;1.75;0.85;;;13.00;99.90;;;;;;4999742;28;20025;-16
2023/10/15 09:09:32;;;;;;;2.45;1.00;;;12.90;99.90;;;;;;5012708;28;20049;-15
2023/10/15 09:11:58;;;;;;;1.60;0.77;;;13.00;99.90;;;;;;4998480;28;20483;-15
2023/10/15 09:14:45;;;;;;;2.67;1.00;;;13.00;99.90;;;;;;5006956;28;20173;-15
2023/10/15 09:17:14;;;;;;;3.10;0.85;;;13.20;99.90;;;;;;4982702;28;20321;-16
2023/10/15 09:19:42;;;;;;;2.17;0.65;;;13.40;99.90;;;;;;5010478;28;20087;-15
2023/10/15 09:22:15;;;;;;;1.48;0.80;;;13.60;99.90;;;;;;5010791;28;20052;-15
2023/10/15 09:24:45;;;;;;;2.23;0.70;;;13.80;99.90;;;;;;5008864;28;20033;-15
2023/10/15 09:27:13;;;;;;;2.40;0.80;;;14.20;99.90;;;;;;4959598;28;20197;-15
2023/10/15 09:29:40;;;;;;;3.53;0.77;;;14.70;99.90;;;;;;5006038;28;20022;-15
2023/10/15 09:32:06;;;;;;;1.67;0.68;;;15.20;99.90;;;;;;4991573;28;20034;-16
2023/10/15 09:34:37;;;;;;;2.27;0.60;;;15.70;99.90;;;;;;4993881;28;20060;-15
2023/10/15 09:37:05;;;;;;;1.33;0.70;;;16.00;99.90;;;;;;5003086;28;20280;-15
2023/10/15 09:39:31;;;;;;;2.00;0.60;;;16.20;99.90;;;;;;5007572;28;20102;-15
2023/10/15 09:42:02;;;;;;;1.15;0.70;;;16.20;99.90;;;;;;4995954;28;20033;-15
2023/10/15 09:44:35;;;;;;;1.65;0.60;;;16.80;99.90;;;;;;4985171;28;20422;-15
2023/10/15 09:47:01;;;;;;;1.98;0.80;;;16.10;99.90;;;;;;4985265;28;20190;-16
2023/10/15 09:49:29;;;;;;;1.03;0.60;;;16.10;99.90;;;;;;5000478;28;20689;-16
2023/10/15 09:51:55;;;;;;;1.10;0.52;;;16.00;99.90;;;;;;5026444;28;20033;-15
2023/10/15 09:54:23;;;;;;;1.65;0.60;;;15.90;99.90;;;;;;5005125;28;20225;-16
2023/10/15 09:56:50;;;;;;;1.70;0.60;;;15.80;99.90;;;;;;5019554;28;20443;-15
2023/10/15 09:59:17;;;;;;;1.73;0.60;;;15.70;99.90;;;;;;4994472;28;20113;-15
2023/10/15 10:01:54;;;;;;;1.77;0.90;;;15.60;99.90;;;;;;5009535;28;20434;-15
2023/10/15 10:04:52;;;;;;;1.45;0.60;;;15.60;99.90;;;;;;4980031;28;20026;-15
2023/10/15 10:07:36;;;;;;;1.52;0.60;;;15.70;99.90;;;;;;4990717;28;20029;-15
2023/10/15 10:10:02;;;;;;;1.88;0.68;;;15.70;99.90;;;;;;4999561;28;20530;-15
2023/10/15 10:12:36;;;;;;;1.57;0.60;;;15.70;99.90;;;;;;5012002;28;20029;-15
2023/10/15 10:15:24;;;;;;;1.85;0.70;;;15.80;99.90;;;;;;4994986;28;20138;-15
2023/10/15 10:17:51;;;;;;;1.42;0.60;;;15.80;99.90;;;;;;4982802;28;20041;-15
2023/10/15 10:20:19;;;;;;;2.33;0.70;;;15.70;99.90;;;;;;4999385;28;20057;-15
2023/10/15 10:23:04;;;;;;;2.78;0.75;;;15.70;99.90;;;;;;5007745;28;20383;-15
2023/10/15 10:25:45;;;;;;;1.33;0.50;;;15.80;99.90;;;;;;5026561;28;20029;-15
2023/10/15 10:28:11;;;;;;;1.92;0.50;;;15.90;99.90;;;;;;5002241;28;20826;-15
2023/10/15 10:30:38;;;;;;;2.38;0.90;;;16.10;99.90;;;;;;5000879;28;20029;-15
2023/10/15 10:33:05;;;;;;;1.20;0.65;;;16.30;99.90;;;;;;4981474;28;22234;-15
2023/10/15 10:35:45;;;;;;;2.92;0.98;;;16.40;99.90;;;;;;5008154;28;20266;-15
2023/10/15 10:38:18;;;;;;;1.30;0.60;;;16.40;99.90;;;;;;5008066;28;20230;-15
2023/10/15 10:40:52;;;;;;;3.65;0.70;;;16.30;99.90;;;;;;5006829;28;20026;-15
2023/10/15 10:43:27;;;;;;;2.70;0.60;;;16.30;99.90;;;;;;5008000;28;20026;-14
2023/10/15 10:45:55;;;;;;;1.55;0.70;;;16.30;99.90;;;;;;4997353;28;20037;-15
2023/10/15 10:48:30;;;;;;;1.90;0.60;;;16.40;99.90;;;;;;5008896;28;20038;-15
2023/10/15 10:51:08;;;;;;;1.67;0.57;;;16.80;99.90;;;;;;4982300;28;20794;-16
2023/10/15 10:53:59;;;;;;;2.80;0.70;;;17.30;99.90;;;;;;4996885;28;20038;-16
2023/10/15 10:56:40;;;;;;;1.98;0.63;;;18.00;99.90;;;;;;4995637;28;20037;-16
2023/10/15 10:59:16;;;;;;;2.70;0.70;;;18.70;99.90;;;;;;5006456;28;20033;-15
2023/10/15 11:01:45;;;;;;;1.50;0.80;;;19.30;99.90;;;;;;4987030;28;20505;-15
2023/10/15 11:04:15;;;;;;;2.70;1.30;;;20.10;99.90;;;;;;4997390;28;20034;-15
2023/10/15 11:06:42;;;;;;;3.92;1.20;;;20.70;99.90;;;;;;4982884;28;20633;-15
2023/10/15 11:09:15;;;;;;;2.55;1.10;;;21.30;99.90;;;;;;5008215;28;20179;-16
2023/10/15 11:11:55;;;;;;;2.67;1.20;;;21.80;99.90;;;;;;5008336;28;20213;-16
2023/10/15 11:14:26;;;;;;;1.85;0.90;;;22.10;99.90;;;;;;5002461;28;20116;-16
2023/10/15 11:16:54;;;;;;;2.03;1.10;;;22.20;99.90;;;;;;5002940;28;20041;-15
2023/10/15 11:19:29;;;;;;;1.58;0.80;;;22.30;99.90;;;;;;4995885;28;20040;-16
2023/10/15 11:21:55;;;;;;;2.20;0.80;;;22.10;99.90;;;;;;5010715;28;20172;-15
2023/10/15 11:24:23;;;;;;;2.67;0.80;;;21.80;99.00;;;;;;5006622;28;20021;-15
2023/10/15 11:26:49;;;;;;;1.63;0.73;;;21.30;97.20;;;;;;5007043;28;20060;-16
2023/10/15 11:29:19;;;;;;;2.13;0.70;;;20.90;96.10;;;;;;4991735;28;20042;-16
2023/10/15 11:31:48;;;;;;;0.63;0.50;;;20.30;94.80;;;;;;4997850;28;21500;-16
2023/10/15 11:34:22;;;;;;;0.60;0.30;;;19.70;93.60;;;;;;5005160;28;20021;-16
2023/10/15 11:36:48;;;;;;;0.32;0.30;;;18.80;94.80;;;;;;4996082;28;20429;-15
2023/10/15 11:39:38;;;;;;;1.08;0.40;;;18.40;94.10;;;;;;5009387;28;20037;-15
2023/10/15 11:42:06;;;;;;;0.53;0.40;;;17.80;93.60;;;;;;5007051;28;20041;-15
2023/10/15 11:44:32;;;;;;;0.60;0.30;;;17.30;94.80;;;;;;5002307;28;20029;-15
2023/10/15 11:47:08;;;;;;;0.40;0.40;;;16.90;95.50;;;;;;4997920;28;20119;-15
2023/10/15 11:49:35;;;;;;;1.10;0.40;;;16.50;95.90;;;;;;5005729;28;20029;-15
2023/10/15 11:52:05;;;;;;;1.73;0.47;;;16.10;96.90;;;;;;4988015;28;20038;-16
2023/10/15 11:54:32;;;;;;;0.77;0.40;;;15.80;97.20;;;;;;4971511;28;20021;-15
2023/10/15 11:57:04;;;;;;;1.65;0.50;;;15.60;98.20;;;;;;5004587;28;20115;-15
2023/10/15 11:59:31;;;;;;;1.25;0.60;;;15.40;98.90;;;;;;4995134;28;20033;-15
2023/10/15 12:02:01;;;;;;;1.07;0.50;;;15.30;99.90;;;;;;5022005;28;20123;-15
2023/10/15 12:04:28;;;;;;;1.17;1.00;;;15.20;99.90;;;;;;4991214;28;20037;-16
2023/10/15 12:06:53;;;;;;;1.85;0.93;;;15.30;99.90;;;;;;4982225;28;20196;-16
2023/10/15 12:09:24;;;;;;;1.63;1.00;;;15.40;99.90;;;;;;5004562;28;20030;-16
2023/10/15 12:11:51;;;;;;;1.58;0.95;;;15.50;99.90;;;;;;5003981;28;20025;-15
2023/10/15 12:14:17;;;;;;;1.40;0.90;;;15.70;99.90;;;;;;4996378;28;20033;-15
2023/10/15 12:16:44;;;;;;;2.25;1.20;;;15.90;99.90;;;;;;5001435;28;20045;-15
2023/10/15 12:19:10;;;;;;;1.77;0.85;;;16.20;99.90;;;;;;4981486;28;20096;-15
2023/10/15 12:21:40;;;;;;;0.90;0.60;;;16.60;99.90;;;;;;4983006;28;20044;-16
2023/10/15 12:24:11;;;;;;;0.93;0.53;;;17.00;99.90;;;;;;5001456;28;20498;-16
2023/10/15 12:26:36;;;;;;;1.13;0.50;;;17.50;99.90;;;;;;4981570;28;20021;-15
2023/10/15 12:29:03;;;;;;;1.25;0.40;;;17.90;99.90;;;;;;4980736;28;20100;-16
2023/10/15 12:31:30;;;;;;;0.93;0.55;;;18.40;99.90;;;;;;4987167;28;20505;-16
2023/10/15 12:33:56;;;;;;;1.17;0.50;;;19.00;99.90;;;;;;5006844;28;20509;-16
2023/10/15 12:36:22;;;;;;;1.15;0.52;;;19.60;99.90;;;;;;4997395;28;20121;-17
2023/10/15 12:38:48;;;;;;;0.68;0.50;;;20.10;99.90;;;;;;4975194;28;20744;-17
2023/10/15 12:41:15;;;;;;;1.02;0.57;;;20.70;99.90;;;;;;4987915;28;20173;-16
2023/10/15 12:43:40;;;;;;;0.97;0.40;;;21.20;99.90;;;;;;5009024;28;20119;-17
2023/10/15 12:46:07;;;;;;;0.73;0.60;;;21.60;99.90;;;;;;4997672;28;20029;-18
2023/10/15 12:48:33;;;;;;;0.90;0.52;;;22.10;99.90;;;;;;4991649;28;20038;-17
2023/10/15 12:50:59;;;;;;;2.27;0.50;;;22.50;99.90;;;;;;4990892;28;20584;-18
2023/10/15 12:53:25;;;;;;;1.27;0.70;;;22.70;99.90;;;;;;4973271;28;20037;-18
2023/10/15 12:55:52;;;;;;;1.48;0.50;;;22.70;99.90;;;;;;4998453;28;20498;-17
2023/10/15 12:58:18;;;;;;;1.20;0.60;;;22.50;99.70;;;;;;5006215;28;20701;-16
2023/10/15 13:00:48;;;;;;;1.63;0.60;;;22.30;98.40;;;;;;5003982;28;21026;-17
2023/10/15 13:03:18;;;;;;;1.40;0.47;;;21.90;97.40;;;;;;4991910;28;20053;-16
2023/10/15 13:05:44;;;;;;;1.17;0.50;;;21.60;95.90;;;;;;5003825;28;20026;-17
2023/10/15 13:08:10;;;;;;;1.30;0.50;;;21.10;94.60;;;;;;4992432;28;20045;-16